Time;durP1;ratioP1;P1;durP2;ratioP2;P2;SDS_P1;SDS_P2;PMS_P1;PMS_P2;Temp;Humidity;BMP_temperature;BMP_pressure;BME280_temperature;BME280_humidity;BME280_pressure;Samples;Min_cycle;Max_cycle;Signal;HPM_P1;HPM_P2
2021/09/27 00:01:55;;;;;;;15.70;12.10;;;;;;;;;;5103112;28;20532;-72
2021/09/27 00:04:23;;;;;;;16.00;12.43;;;;;;;;;;5101646;28;20495;-72
2021/09/27 00:06:51;;;;;;;14.50;12.93;;;;;;;;;;5102177;28;20921;-72
2021/09/27 00:09:32;;;;;;;16.13;11.53;;;;;;;;;;5102551;28;20745;-72
2021/09/27 00:12:02;;;;;;;13.70;10.97;;;;;;;;;;5101502;28;21070;-72
2021/09/27 00:14:32;;;;;;;13.70;11.30;;;;;;;;;;5102805;28;20452;-72
2021/09/27 00:17:00;;;;;;;13.50;10.93;;;;;;;;;;5102830;28;20534;-72
2021/09/27 00:19:29;;;;;;;11.70;10.50;;;;;;;;;;5098043;28;20528;-71
2021/09/27 00:21:57;;;;;;;13.73;11.27;;;;;;;;;;5103233;28;20470;-72
2021/09/27 00:24:25;;;;;;;17.77;11.03;;;;;;;;;;5102568;28;20554;-72
2021/09/27 00:26:52;;;;;;;13.20;11.40;;;;;;;;;;5103784;28;20455;-72
2021/09/27 00:29:22;;;;;;;12.77;10.80;;;;;;;;;;5102577;28;20530;-71
2021/09/27 00:31:50;;;;;;;13.87;12.20;;;;;;;;;;5102863;28;20554;-71
2021/09/27 00:34:19;;;;;;;14.47;11.20;;;;;;;;;;5103021;28;20888;-72
2021/09/27 00:36:47;;;;;;;14.67;11.63;;;;;;;;;;5103487;28;20723;-71
2021/09/27 00:39:18;;;;;;;14.60;12.70;;;;;;;;;;5102909;28;20467;-72
2021/09/27 00:41:52;;;;;;;14.53;12.67;;;;;;;;;;5102908;28;20455;-72
2021/09/27 00:44:20;;;;;;;14.50;11.73;;;;;;;;;;5100534;28;20490;-72
2021/09/27 00:46:49;;;;;;;16.67;12.23;;;;;;;;;;5099656;28;20479;-72
2021/09/27 00:49:17;;;;;;;14.77;12.27;;;;;;;;;;5098172;28;20818;-72
2021/09/27 00:51:46;;;;;;;10.40;9.40;;;;;;;;;;5099013;28;20479;-72
2021/09/27 00:54:15;;;;;;;16.47;13.57;;;;;;;;;;5099182;28;20467;-72
2021/09/27 00:56:46;;;;;;;17.00;12.83;;;;;;;;;;5099037;28;20466;-72
2021/09/27 00:59:15;;;;;;;15.73;11.33;;;;;;;;;;5099286;28;20480;-72
2021/09/27 01:01:43;;;;;;;15.70;11.07;;;;;;;;;;5098373;28;20455;-72
2021/09/27 01:04:13;;;;;;;12.83;11.47;;;;;;;;;;5098214;28;20474;-72
2021/09/27 01:06:47;;;;;;;13.97;11.53;;;;;;;;;;5098499;28;20542;-72
2021/09/27 01:09:22;;;;;;;18.60;12.80;;;;;;;;;;5098496;28;20485;-72
2021/09/27 01:12:08;;;;;;;16.00;12.83;;;;;;;;;;5099237;28;20627;-72
2021/09/27 01:14:55;;;;;;;14.77;12.87;;;;;;;;;;5073758;28;20533;-73
2021/09/27 01:17:31;;;;;;;13.73;11.10;;;;;;;;;;5098729;28;20927;-72
2021/09/27 01:20:17;;;;;;;14.93;12.87;;;;;;;;;;5098696;28;20867;-72
2021/09/27 01:23:04;;;;;;;16.50;13.00;;;;;;;;;;5098641;28;20455;-72
2021/09/27 01:25:43;;;;;;;16.80;13.20;;;;;;;;;;5078145;28;20550;-71
2021/09/27 01:28:37;;;;;;;15.53;12.93;;;;;;;;;;5078566;28;20456;-72
2021/09/27 01:31:17;;;;;;;14.93;11.90;;;;;;;;;;5089890;28;20455;-72
2021/09/27 01:33:51;;;;;;;16.17;12.90;;;;;;;;;;5098148;28;20554;-72
2021/09/27 01:36:24;;;;;;;16.50;13.07;;;;;;;;;;5098954;28;20451;-72
2021/09/27 01:38:57;;;;;;;14.83;12.53;;;;;;;;;;5099474;28;20458;-72
2021/09/27 01:41:39;;;;;;;15.10;12.70;;;;;;;;;;5098482;28;20447;-72
2021/09/27 01:44:14;;;;;;;15.13;13.47;;;;;;;;;;5098576;28;20474;-71
2021/09/27 01:46:47;;;;;;;20.27;13.40;;;;;;;;;;5099654;28;20723;-72
2021/09/27 01:49:17;;;;;;;13.37;12.03;;;;;;;;;;5098171;28;20866;-72
2021/09/27 01:51:50;;;;;;;14.90;12.43;;;;;;;;;;5098009;28;20494;-72
2021/09/27 01:54:22;;;;;;;15.53;12.57;;;;;;;;;;5098196;28;20464;-73
2021/09/27 01:56:52;;;;;;;13.50;12.13;;;;;;;;;;5096999;28;20455;-73
2021/09/27 01:59:26;;;;;;;13.73;12.27;;;;;;;;;;5097809;28;20502;-72
2021/09/27 02:01:58;;;;;;;17.37;12.73;;;;;;;;;;5098047;28;20463;-73
2021/09/27 02:04:34;;;;;;;14.13;12.63;;;;;;;;;;5097982;28;20456;-74
2021/09/27 02:07:03;;;;;;;15.17;11.97;;;;;;;;;;5097805;28;20724;-73
2021/09/27 02:09:35;;;;;;;13.33;11.20;;;;;;;;;;5097998;28;20455;-73
2021/09/27 02:12:06;;;;;;;14.17;11.57;;;;;;;;;;5097687;28;20808;-72
2021/09/27 02:14:36;;;;;;;15.03;12.10;;;;;;;;;;5098083;28;20471;-72
2021/09/27 02:17:13;;;;;;;13.23;11.10;;;;;;;;;;5098001;28;20467;-73
2021/09/27 02:19:45;;;;;;;13.33;11.40;;;;;;;;;;5098085;28;20724;-72
2021/09/27 02:22:16;;;;;;;15.83;13.43;;;;;;;;;;5098123;28;20550;-72
2021/09/27 02:24:48;;;;;;;15.57;13.13;;;;;;;;;;5097937;28;20789;-72
2021/09/27 02:27:19;;;;;;;15.03;13.43;;;;;;;;;;5098026;28;20880;-72
2021/09/27 02:29:47;;;;;;;19.60;13.33;;;;;;;;;;5097755;28;20448;-73
2021/09/27 02:32:18;;;;;;;18.37;14.20;;;;;;;;;;5097889;28;20522;-73
2021/09/27 02:34:51;;;;;;;13.97;12.23;;;;;;;;;;5097668;28;20502;-72
2021/09/27 02:37:25;;;;;;;18.00;12.83;;;;;;;;;;5098006;28;20490;-72
2021/09/27 02:39:56;;;;;;;15.23;12.40;;;;;;;;;;5097422;28;20456;-73
2021/09/27 02:42:31;;;;;;;20.33;14.77;;;;;;;;;;5096908;28;20463;-72
2021/09/27 02:45:03;;;;;;;13.83;11.97;;;;;;;;;;5096940;28;20447;-72
2021/09/27 02:47:34;;;;;;;14.33;11.83;;;;;;;;;;5097321;28;20718;-72
2021/09/27 02:50:11;;;;;;;16.77;12.17;;;;;;;;;;5097376;28;20512;-73
2021/09/27 02:52:42;;;;;;;16.57;12.77;;;;;;;;;;5097036;28;20499;-73
2021/09/27 02:55:13;;;;;;;16.00;13.57;;;;;;;;;;5097394;28;20478;-73
2021/09/27 02:57:51;;;;;;;16.13;13.17;;;;;;;;;;5098033;28;20458;-73
2021/09/27 03:00:20;;;;;;;15.00;13.40;;;;;;;;;;5080758;28;20455;-73
2021/09/27 03:02:53;;;;;;;15.10;13.20;;;;;;;;;;5096882;28;20463;-73
2021/09/27 03:05:27;;;;;;;21.73;15.57;;;;;;;;;;5096999;28;20851;-73
2021/09/27 03:08:15;;;;;;;17.07;13.33;;;;;;;;;;5096718;28;20550;-73
2021/09/27 03:10:51;;;;;;;15.60;11.00;;;;;;;;;;5096851;28;20452;-73
2021/09/27 03:13:24;;;;;;;15.17;12.63;;;;;;;;;;5097093;28;20490;-73
2021/09/27 03:15:57;;;;;;;19.33;12.60;;;;;;;;;;5097237;28;20451;-73
2021/09/27 03:18:34;;;;;;;19.07;13.00;;;;;;;;;;5097419;28;20468;-73
2021/09/27 03:21:11;;;;;;;16.67;12.80;;;;;;;;;;5096872;28;20520;-72
2021/09/27 03:23:43;;;;;;;17.80;13.73;;;;;;;;;;5096941;28;20510;-73
2021/09/27 03:26:17;;;;;;;19.53;13.03;;;;;;;;;;5096016;28;20467;-73
2021/09/27 03:28:54;;;;;;;14.97;12.77;;;;;;;;;;5096734;28;20565;-73
2021/09/27 03:31:27;;;;;;;17.90;13.47;;;;;;;;;;5096509;28;20455;-74
2021/09/27 03:34:08;;;;;;;14.20;12.70;;;;;;;;;;5094642;28;21112;-74
2021/09/27 03:36:53;;;;;;;19.40;14.20;;;;;;;;;;5096604;28;20516;-75
2021/09/27 03:39:26;;;;;;;13.87;12.27;;;;;;;;;;5096740;28;20543;-73
2021/09/27 03:41:59;;;;;;;14.03;12.47;;;;;;;;;;5095906;28;20737;-73
2021/09/27 03:44:30;;;;;;;17.73;13.23;;;;;;;;;;5095744;28;20546;-74
2021/09/27 03:47:02;;;;;;;14.67;13.10;;;;;;;;;;5095593;28;20462;-74
2021/09/27 03:49:34;;;;;;;14.20;12.37;;;;;;;;;;5093287;28;20456;-73
2021/09/27 03:52:11;;;;;;;13.00;11.60;;;;;;;;;;5095227;28;20782;-74
2021/09/27 03:54:42;;;;;;;15.60;12.10;;;;;;;;;;5095992;28;20551;-74
2021/09/27 03:57:14;;;;;;;17.43;13.70;;;;;;;;;;5096336;28;20884;-74
2021/09/27 03:59:45;;;;;;;14.93;12.13;;;;;;;;;;5097119;28;20470;-74
2021/09/27 04:02:16;;;;;;;17.07;13.33;;;;;;;;;;5096463;28;20464;-74
2021/09/27 04:04:51;;;;;;;15.93;13.70;;;;;;;;;;5095929;28;20471;-74
2021/09/27 04:07:26;;;;;;;16.97;13.10;;;;;;;;;;5096266;28;20459;-73
2021/09/27 04:09:59;;;;;;;17.40;13.70;;;;;;;;;;5096262;28;20516;-73
2021/09/27 04:12:34;;;;;;;17.37;14.80;;;;;;;;;;5096315;28;20452;-73
2021/09/27 04:15:11;;;;;;;18.27;13.90;;;;;;;;;;5088820;28;20471;-73
2021/09/27 04:17:44;;;;;;;16.30;14.50;;;;;;;;;;5086674;28;20463;-75
2021/09/27 04:20:17;;;;;;;17.00;12.93;;;;;;;;;;5097798;28;20461;-73
2021/09/27 04:22:50;;;;;;;18.77;12.90;;;;;;;;;;5099460;28;20738;-74
2021/09/27 04:25:22;;;;;;;17.50;14.07;;;;;;;;;;5100211;28;20549;-73
2021/09/27 04:28:08;;;;;;;17.60;13.67;;;;;;;;;;5098851;28;20860;-73
2021/09/27 04:30:47;;;;;;;17.57;14.43;;;;;;;;;;5089887;28;20520;-72
2021/09/27 04:33:24;;;;;;;22.17;15.03;;;;;;;;;;5099756;28;20890;-73
2021/09/27 04:35:56;;;;;;;18.93;14.60;;;;;;;;;;5099339;28;20451;-73
2021/09/27 04:38:26;;;;;;;29.17;19.40;;;;;;;;;;5098955;28;20455;-73
2021/09/27 04:41:04;;;;;;;20.37;15.27;;;;;;;;;;5099065;28;20785;-75
2021/09/27 04:43:37;;;;;;;17.20;12.37;;;;;;;;;;5096612;28;20746;-74
2021/09/27 04:46:08;;;;;;;16.17;12.90;;;;;;;;;;5098958;28;20467;-73
2021/09/27 04:48:57;;;;;;;15.30;11.93;;;;;;;;;;5097831;28;20512;-73
2021/09/27 04:51:28;;;;;;;15.00;12.70;;;;;;;;;;5099990;28;20462;-73
2021/09/27 04:54:10;;;;;;;15.90;12.97;;;;;;;;;;5099007;28;20475;-74
2021/09/27 04:56:43;;;;;;;14.60;13.17;;;;;;;;;;5099036;28;20462;-73
2021/09/27 04:59:19;;;;;;;19.23;13.10;;;;;;;;;;5099139;28;20518;-74
2021/09/27 05:01:57;;;;;;;13.53;12.10;;;;;;;;;;5098255;28;20464;-73
2021/09/27 05:04:34;;;;;;;19.40;13.60;;;;;;;;;;5091486;28;21101;-73
2021/09/27 05:07:17;;;;;;;18.80;14.17;;;;;;;;;;5079114;28;20480;-73
2021/09/27 05:09:52;;;;;;;16.07;13.10;;;;;;;;;;5077468;28;20567;-74
2021/09/27 05:12:38;;;;;;;15.80;13.73;;;;;;;;;;5076521;28;20715;-73
2021/09/27 05:15:17;;;;;;;20.87;13.93;;;;;;;;;;5076092;28;20506;-73
2021/09/27 05:17:55;;;;;;;17.33;14.63;;;;;;;;;;5075205;28;20452;-74
2021/09/27 05:20:48;;;;;;;14.40;12.83;;;;;;;;;;5075689;28;20544;-74
2021/09/27 05:23:19;;;;;;;18.77;13.77;;;;;;;;;;5077385;28;20487;-73
2021/09/27 05:26:10;;;;;;;16.90;12.60;;;;;;;;;;5076516;28;20471;-73
2021/09/27 05:28:51;;;;;;;19.73;14.50;;;;;;;;;;5070025;28;20472;-73
2021/09/27 05:31:33;;;;;;;15.93;13.67;;;;;;;;;;5082589;28;20452;-73
2021/09/27 05:34:07;;;;;;;17.40;13.37;;;;;;;;;;5094085;28;20510;-73
2021/09/27 05:36:53;;;;;;;19.83;14.80;;;;;;;;;;5083097;28;20452;-72
2021/09/27 05:39:26;;;;;;;18.33;14.37;;;;;;;;;;5075320;28;20472;-73
2021/09/27 05:42:04;;;;;;;18.17;14.30;;;;;;;;;;5073439;28;20453;-73
2021/09/27 05:44:38;;;;;;;17.63;13.37;;;;;;;;;;5082032;28;20483;-73
2021/09/27 05:47:11;;;;;;;15.97;14.23;;;;;;;;;;5094409;28;20545;-73
2021/09/27 05:49:43;;;;;;;16.43;13.70;;;;;;;;;;5093490;28;20517;-73
2021/09/27 05:52:14;;;;;;;16.47;13.67;;;;;;;;;;5091522;28;20460;-73
2021/09/27 05:54:48;;;;;;;17.20;15.33;;;;;;;;;;5095118;28;20996;-74
2021/09/27 05:57:18;;;;;;;15.70;13.80;;;;;;;;;;5094773;28;20443;-74
2021/09/27 05:59:51;;;;;;;18.97;15.10;;;;;;;;;;5080452;28;20468;-73
2021/09/27 06:02:39;;;;;;;23.80;14.70;;;;;;;;;;5072554;28;20452;-73
2021/09/27 06:05:12;;;;;;;20.40;15.10;;;;;;;;;;5071784;28;20880;-73
2021/09/27 06:07:43;;;;;;;16.63;13.50;;;;;;;;;;5072804;28;20457;-73
2021/09/27 06:10:18;;;;;;;15.70;13.90;;;;;;;;;;5090664;28;20443;-73
2021/09/27 06:12:47;;;;;;;18.03;14.97;;;;;;;;;;5095237;28;20455;-74
2021/09/27 06:15:19;;;;;;;18.60;15.07;;;;;;;;;;5095387;28;20456;-73
2021/09/27 06:17:55;;;;;;;17.87;14.40;;;;;;;;;;5096033;28;20483;-73
2021/09/27 06:20:30;;;;;;;18.80;14.93;;;;;;;;;;5094235;28;20528;-74
2021/09/27 06:23:00;;;;;;;17.50;14.37;;;;;;;;;;5095056;28;20933;-73
2021/09/27 06:25:30;;;;;;;21.00;16.00;;;;;;;;;;5094873;28;20456;-73
2021/09/27 06:28:05;;;;;;;17.43;14.80;;;;;;;;;;5094430;28;20475;-73
2021/09/27 06:30:39;;;;;;;16.07;13.87;;;;;;;;;;5094594;28;20455;-74
2021/09/27 06:33:12;;;;;;;17.60;15.73;;;;;;;;;;5094071;28;20763;-73
2021/09/27 06:35:42;;;;;;;17.53;14.17;;;;;;;;;;5094323;28;20533;-73
2021/09/27 06:38:11;;;;;;;18.90;13.90;;;;;;;;;;5082811;28;20990;-74
2021/09/27 06:40:43;;;;;;;18.40;14.30;;;;;;;;;;5080160;28;20448;-73
2021/09/27 06:43:12;;;;;;;19.37;15.53;;;;;;;;;;5089982;28;20810;-72
2021/09/27 06:45:49;;;;;;;18.50;14.87;;;;;;;;;;5088691;28;20782;-73
2021/09/27 06:48:21;;;;;;;16.50;14.70;;;;;;;;;;5074252;28;20470;-73
2021/09/27 06:50:50;;;;;;;18.07;14.17;;;;;;;;;;5074575;28;20539;-72
2021/09/27 06:53:18;;;;;;;16.20;14.50;;;;;;;;;;5073808;28;20504;-72
2021/09/27 06:55:47;;;;;;;16.77;15.07;;;;;;;;;;5073380;28;20484;-72
2021/09/27 06:58:23;;;;;;;18.67;15.90;;;;;;;;;;5079311;28;20460;-74
2021/09/27 07:00:52;;;;;;;19.50;15.37;;;;;;;;;;5093681;28;20442;-73
2021/09/27 07:03:20;;;;;;;22.17;16.40;;;;;;;;;;5092914;28;20543;-73
2021/09/27 07:05:48;;;;;;;22.00;15.50;;;;;;;;;;5091631;28;20455;-74
2021/09/27 07:08:18;;;;;;;20.77;16.53;;;;;;;;;;5092803;28;20456;-73
2021/09/27 07:10:47;;;;;;;20.80;14.90;;;;;;;;;;5094284;28;20462;-72
2021/09/27 07:13:18;;;;;;;20.80;16.50;;;;;;;;;;5090338;28;20561;-73
2021/09/27 07:15:47;;;;;;;20.00;15.60;;;;;;;;;;5093515;28;20500;-73
2021/09/27 07:18:16;;;;;;;23.57;16.30;;;;;;;;;;5092792;28;20463;-73
2021/09/27 07:20:44;;;;;;;17.30;14.77;;;;;;;;;;5093956;28;20472;-73
2021/09/27 07:23:12;;;;;;;18.20;15.97;;;;;;;;;;5094812;28;20910;-72
2021/09/27 07:25:40;;;;;;;21.80;16.00;;;;;;;;;;5094506;28;20743;-72
2021/09/27 07:28:08;;;;;;;20.30;15.80;;;;;;;;;;5094926;28;20479;-73
2021/09/27 07:30:36;;;;;;;20.97;15.97;;;;;;;;;;5094328;28;20467;-73
2021/09/27 07:33:04;;;;;;;21.53;15.03;;;;;;;;;;5094539;28;20864;-72
2021/09/27 07:35:35;;;;;;;21.97;16.43;;;;;;;;;;5094567;28;20493;-73
2021/09/27 07:38:03;;;;;;;19.30;16.57;;;;;;;;;;5095154;28;20715;-73
2021/09/27 07:40:31;;;;;;;20.67;15.60;;;;;;;;;;5093933;28;21135;-73
2021/09/27 07:42:59;;;;;;;17.73;15.13;;;;;;;;;;5093034;28;20514;-72
2021/09/27 07:45:28;;;;;;;24.40;17.80;;;;;;;;;;5094191;28;20504;-72
2021/09/27 07:47:56;;;;;;;20.33;16.40;;;;;;;;;;5092963;28;20955;-73
2021/09/27 07:50:24;;;;;;;20.87;16.80;;;;;;;;;;5093957;28;20447;-73
2021/09/27 07:52:54;;;;;;;23.50;17.20;;;;;;;;;;5076904;28;20456;-72
2021/09/27 07:55:22;;;;;;;20.97;15.87;;;;;;;;;;5088896;28;20487;-72
2021/09/27 07:57:54;;;;;;;19.80;16.97;;;;;;;;;;5095053;28;20554;-72
2021/09/27 08:00:26;;;;;;;17.97;15.47;;;;;;;;;;5096853;28;20460;-73
2021/09/27 08:02:54;;;;;;;21.17;15.83;;;;;;;;;;5095203;28;20735;-72
2021/09/27 08:05:25;;;;;;;23.80;16.03;;;;;;;;;;5087913;28;20464;-72
2021/09/27 08:07:55;;;;;;;22.00;15.57;;;;;;;;;;5094681;28;20452;-71
2021/09/27 08:10:25;;;;;;;22.93;18.37;;;;;;;;;;5097932;28;20470;-74
2021/09/27 08:12:53;;;;;;;27.50;18.57;;;;;;;;;;5102941;27;20443;-71
2021/09/27 08:15:24;;;;;;;25.37;18.13;;;;;;;;;;5118170;27;20902;-72
2021/09/27 08:17:52;;;;;;;23.00;16.80;;;;;;;;;;5098268;28;20809;-72
2021/09/27 08:20:22;;;;;;;24.23;18.07;;;;;;;;;;5101046;28;20454;-72
2021/09/27 08:22:50;;;;;;;22.20;17.20;;;;;;;;;;5105068;28;20553;-71
2021/09/27 08:25:20;;;;;;;22.53;16.30;;;;;;;;;;5097430;28;20511;-72
2021/09/27 08:27:48;;;;;;;30.57;18.60;;;;;;;;;;5098138;28;20463;-71
2021/09/27 08:30:18;;;;;;;23.67;18.17;;;;;;;;;;5094139;28;20467;-71
2021/09/27 08:32:46;;;;;;;23.50;17.10;;;;;;;;;;5097822;28;20460;-72
2021/09/27 08:35:15;;;;;;;24.67;17.97;;;;;;;;;;5096710;28;20474;-72
2021/09/27 08:37:44;;;;;;;23.50;16.80;;;;;;;;;;5096345;28;20462;-71
2021/09/27 08:40:21;;;;;;;27.37;17.70;;;;;;;;;;5096932;28;20470;-72
2021/09/27 08:42:52;;;;;;;32.03;19.60;;;;;;;;;;5097176;28;20502;-71
2021/09/27 08:45:22;;;;;;;24.40;17.50;;;;;;;;;;5091636;28;20477;-72
2021/09/27 08:47:59;;;;;;;29.50;18.20;;;;;;;;;;5095928;28;20483;-71
2021/09/27 08:50:31;;;;;;;25.43;18.67;;;;;;;;;;5082910;28;20833;-71
2021/09/27 08:53:00;;;;;;;29.80;23.83;;;;;;;;;;5097112;28;20487;-72
2021/09/27 08:55:30;;;;;;;28.70;19.53;;;;;;;;;;5096230;28;20483;-71
2021/09/27 08:58:06;;;;;;;20.93;16.63;;;;;;;;;;5096840;28;20509;-72
2021/09/27 09:00:38;;;;;;;27.90;19.60;;;;;;;;;;5095995;28;20803;-71
2021/09/27 09:03:11;;;;;;;27.30;17.23;;;;;;;;;;5088678;28;20456;-72
2021/09/27 09:05:45;;;;;;;22.90;18.20;;;;;;;;;;5094908;28;20470;-73
2021/09/27 09:08:19;;;;;;;23.23;18.40;;;;;;;;;;5103088;28;20559;-73
2021/09/27 09:10:49;;;;;;;23.20;16.83;;;;;;;;;;5116877;27;20451;-73
2021/09/27 09:13:22;;;;;;;24.63;18.17;;;;;;;;;;5103133;28;20467;-71
2021/09/27 09:15:55;;;;;;;21.97;17.37;;;;;;;;;;5087561;28;20486;-72
2021/09/27 09:18:26;;;;;;;21.70;16.80;;;;;;;;;;5109276;28;20455;-73
2021/09/27 09:21:00;;;;;;;24.63;18.70;;;;;;;;;;5102051;28;20456;-74
2021/09/27 09:23:33;;;;;;;21.17;16.80;;;;;;;;;;5096762;28;20455;-75
2021/09/27 09:26:12;;;;;;;23.77;18.20;;;;;;;;;;5108250;27;20456;-72
2021/09/27 09:28:44;;;;;;;21.73;16.63;;;;;;;;;;5105527;27;20917;-72
2021/09/27 09:31:14;;;;;;;22.63;17.40;;;;;;;;;;5080850;28;20462;-73
2021/09/27 09:33:44;;;;;;;21.03;16.70;;;;;;;;;;5095409;28;20563;-72
2021/09/27 09:36:13;;;;;;;21.33;16.53;;;;;;;;;;5102468;28;20493;-72
2021/09/27 09:38:42;;;;;;;20.63;16.87;;;;;;;;;;5091949;28;20477;-73
2021/09/27 09:41:12;;;;;;;21.83;16.77;;;;;;;;;;5084828;28;20862;-74
2021/09/27 09:43:42;;;;;;;23.37;15.57;;;;;;;;;;5109933;28;20542;-72
2021/09/27 09:46:23;;;;;;;18.00;14.33;;;;;;;;;;5099286;28;20458;-74
2021/09/27 09:49:09;;;;;;;22.43;17.97;;;;;;;;;;5074157;28;20453;-75
2021/09/27 09:51:47;;;;;;;21.47;15.53;;;;;;;;;;5075365;28;20463;-74
2021/09/27 09:54:26;;;;;;;26.87;22.60;;;;;;;;;;5101776;28;20885;-74
2021/09/27 09:57:02;;;;;;;17.60;14.73;;;;;;;;;;5080404;28;20448;-73
2021/09/27 09:59:35;;;;;;;16.47;14.33;;;;;;;;;;5085619;28;20454;-73
2021/09/27 10:02:03;;;;;;;20.10;14.50;;;;;;;;;;5097529;28;20460;-73
2021/09/27 10:04:44;;;;;;;16.53;14.60;;;;;;;;;;5082999;28;20457;-74
2021/09/27 10:07:13;;;;;;;19.80;15.80;;;;;;;;;;5093487;28;20471;-73
2021/09/27 10:09:50;;;;;;;16.43;14.57;;;;;;;;;;5099334;27;20933;-75
2021/09/27 10:12:37;;;;;;;18.77;14.43;;;;;;;;;;5095274;28;20465;-73
2021/09/27 10:15:09;;;;;;;20.87;16.07;;;;;;;;;;5095548;28;20494;-73
2021/09/27 10:17:40;;;;;;;16.80;14.37;;;;;;;;;;5098660;28;20553;-74
2021/09/27 10:20:14;;;;;;;16.50;13.90;;;;;;;;;;5094626;28;20516;-74
2021/09/27 10:22:53;;;;;;;15.47;13.03;;;;;;;;;;5108974;27;20454;-74
2021/09/27 10:25:30;;;;;;;20.00;14.83;;;;;;;;;;5096685;28;20462;-74
2021/09/27 10:28:02;;;;;;;16.53;13.70;;;;;;;;;;5104536;28;20459;-74
2021/09/27 10:30:41;;;;;;;19.40;15.13;;;;;;;;;;5088451;28;20518;-73
2021/09/27 10:33:18;;;;;;;19.70;14.93;;;;;;;;;;5093359;28;20530;-74
2021/09/27 10:35:52;;;;;;;19.47;13.87;;;;;;;;;;5083931;28;20487;-73
2021/09/27 10:38:22;;;;;;;17.57;14.60;;;;;;;;;;5095091;28;20879;-75
2021/09/27 10:40:52;;;;;;;19.03;15.90;;;;;;;;;;5095336;28;20554;-74
2021/09/27 10:43:38;;;;;;;17.67;15.20;;;;;;;;;;5093883;28;20773;-74
2021/09/27 10:49:19;;;;;;;17.57;13.10;;;;;;;;;;5060346;28;21068;-74
2021/09/27 10:52:08;;;;;;;15.20;12.90;;;;;;;;;;5085359;28;20463;-75
2021/09/27 10:55:04;;;;;;;16.87;14.77;;;;;;;;;;5094796;28;20552;-72
2021/09/27 10:57:47;;;;;;;19.03;15.73;;;;;;;;;;5093472;28;20460;-73
2021/09/27 11:00:19;;;;;;;18.40;12.10;;;;;;;;;;5094983;28;20539;-73
2021/09/27 11:02:59;;;;;;;18.50;14.77;;;;;;;;;;5093444;28;20455;-74
2021/09/27 11:05:42;;;;;;;16.13;14.43;;;;;;;;;;5095166;28;20474;-73
2021/09/27 11:08:11;;;;;;;19.13;13.77;;;;;;;;;;5092204;28;20535;-74
2021/09/27 11:10:44;;;;;;;21.20;16.63;;;;;;;;;;5091958;28;20776;-74
2021/09/27 11:13:35;;;;;;;16.00;14.03;;;;;;;;;;5093931;28;20466;-73
2021/09/27 11:16:14;;;;;;;17.13;13.50;;;;;;;;;;5087805;28;20497;-73
2021/09/27 11:18:51;;;;;;;28.47;15.80;;;;;;;;;;5092985;28;20455;-74
2021/09/27 11:21:31;;;;;;;16.57;13.83;;;;;;;;;;5091378;28;20460;-73
2021/09/27 11:24:06;;;;;;;15.73;14.07;;;;;;;;;;5083840;28;20456;-72
2021/09/27 11:26:37;;;;;;;15.10;13.50;;;;;;;;;;5089894;28;20473;-72
2021/09/27 11:29:27;;;;;;;19.40;15.73;;;;;;;;;;5091487;28;20562;-73
2021/09/27 11:32:17;;;;;;;61.87;47.67;;;;;;;;;;5091166;28;20473;-73
2021/09/27 11:34:53;;;;;;;18.70;14.90;;;;;;;;;;5091937;28;21136;-73
2021/09/27 11:37:24;;;;;;;17.03;15.30;;;;;;;;;;5091800;28;20443;-74
2021/09/27 11:39:55;;;;;;;21.37;16.43;;;;;;;;;;5089334;28;20465;-74
2021/09/27 11:42:37;;;;;;;21.00;17.47;;;;;;;;;;5091837;28;20448;-74
2021/09/27 11:45:17;;;;;;;14.80;13.17;;;;;;;;;;5090659;28;20553;-73
2021/09/27 11:47:47;;;;;;;16.80;14.50;;;;;;;;;;5092231;28;20459;-74
2021/09/27 11:56:45;;;;;;;18.87;12.60;;;;;;;;;;5013371;28;20517;-73
2021/09/27 11:59:14;;;;;;;16.67;13.87;;;;;;;;;;5087243;28;20593;-74
2021/09/27 12:01:51;;;;;;;16.20;13.07;;;;;;;;;;5091525;28;20463;-74
2021/09/27 12:04:25;;;;;;;18.90;16.73;;;;;;;;;;5091103;28;20448;-74
2021/09/27 12:10:10;;;;;;;14.60;13.10;;;;;;;;;;5077819;28;20486;-74
2021/09/27 12:12:42;;;;;;;17.63;13.87;;;;;;;;;;5092902;28;20457;-74
2021/09/27 12:15:11;;;;;;;19.20;13.30;;;;;;;;;;5093495;28;20483;-75
2021/09/27 12:17:42;;;;;;;14.23;11.07;;;;;;;;;;5091842;28;20468;-74
2021/09/27 12:20:12;;;;;;;15.30;12.37;;;;;;;;;;5094221;28;20466;-74
2021/09/27 12:22:45;;;;;;;13.40;12.00;;;;;;;;;;5090547;28;20451;-74
2021/09/27 12:25:29;;;;;;;13.77;11.60;;;;;;;;;;5092798;28;20916;-74
2021/09/27 12:30:46;;;;;;;14.23;11.30;;;;;;;;;;5094727;28;20447;-73
2021/09/27 12:33:30;;;;;;;17.63;12.43;;;;;;;;;;5089250;28;20887;-74
2021/09/27 12:36:07;;;;;;;14.40;12.70;;;;;;;;;;5089684;28;20489;-75
2021/09/27 12:38:38;;;;;;;14.07;12.50;;;;;;;;;;5089719;28;20462;-74
2021/09/27 12:41:11;;;;;;;15.83;12.90;;;;;;;;;;5082156;28;20490;-75
2021/09/27 12:46:31;;;;;;;14.50;11.20;;;;;;;;;;5086101;28;20476;-75
2021/09/27 12:49:03;;;;;;;12.03;10.90;;;;;;;;;;5084028;28;20478;-73
2021/09/27 12:51:34;;;;;;;12.83;10.90;;;;;;;;;;5097172;28;20455;-74
2021/09/27 12:54:04;;;;;;;13.00;11.60;;;;;;;;;;5094566;28;20482;-76
2021/09/27 12:56:34;;;;;;;17.10;11.57;;;;;;;;;;5096065;28;20483;-75
2021/09/27 12:59:05;;;;;;;11.90;10.67;;;;;;;;;;5096379;28;20491;-76
2021/09/27 13:01:49;;;;;;;13.37;11.40;;;;;;;;;;5096822;28;20519;-79
2021/09/27 13:04:24;;;;;;;15.20;12.63;;;;;;;;;;5096094;28;20462;-74
2021/09/27 13:07:04;;;;;;;14.47;10.73;;;;;;;;;;5097555;28;20455;-75
2021/09/27 13:09:34;;;;;;;13.40;10.33;;;;;;;;;;5093531;28;20452;-73
2021/09/27 13:12:22;;;;;;;13.20;8.93;;;;;;;;;;5090305;28;20463;-73
2021/09/27 13:17:39;;;;;;;12.20;9.97;;;;;;;;;;5091244;28;20470;-73
2021/09/27 13:20:26;;;;;;;10.37;9.30;;;;;;;;;;5096150;28;20447;-74
2021/09/27 13:23:02;;;;;;;11.83;10.60;;;;;;;;;;5092572;28;20482;-75
2021/09/27 13:28:47;;;;;;;13.20;10.70;;;;;;;;;;5092264;27;20842;-75
2021/09/27 13:31:19;;;;;;;14.10;11.37;;;;;;;;;;5094471;28;20749;-74
2021/09/27 13:33:48;;;;;;;12.90;10.50;;;;;;;;;;5094195;28;20530;-73
2021/09/27 13:37:00;;;;;;;14.60;11.40;;;;;;;;;;5095020;28;20480;-73
2021/09/27 13:39:31;;;;;;;15.20;10.50;;;;;;;;;;5079224;28;20479;-73
2021/09/27 13:42:12;;;;;;;10.87;9.50;;;;;;;;;;5091642;28;20455;-73
2021/09/27 13:44:54;;;;;;;14.23;9.77;;;;;;;;;;5080527;28;20467;-73
2021/09/27 13:47:23;;;;;;;12.40;11.10;;;;;;;;;;5080134;28;20525;-74
2021/09/27 13:49:53;;;;;;;11.13;9.97;;;;;;;;;;5091298;28;20540;-73
2021/09/27 13:52:22;;;;;;;14.23;10.60;;;;;;;;;;5093237;28;20440;-72
2021/09/27 13:54:51;;;;;;;10.83;9.10;;;;;;;;;;5079849;28;20456;-72
2021/09/27 13:57:28;;;;;;;12.20;10.50;;;;;;;;;;5093746;28;20483;-73
2021/09/27 14:00:00;;;;;;;9.83;8.73;;;;;;;;;;5091890;28;20550;-73
2021/09/27 14:02:38;;;;;;;9.80;8.80;;;;;;;;;;5094147;28;20523;-72
2021/09/27 14:05:06;;;;;;;13.20;9.93;;;;;;;;;;5092713;28;20673;-74
2021/09/27 14:07:42;;;;;;;10.17;8.73;;;;;;;;;;5094391;28;20889;-73
2021/09/27 14:10:10;;;;;;;10.47;9.43;;;;;;;;;;5092758;28;20475;-74
2021/09/27 14:12:38;;;;;;;10.10;8.73;;;;;;;;;;5094512;28;20463;-74
2021/09/27 14:15:10;;;;;;;9.37;8.33;;;;;;;;;;5087458;28;20483;-74
2021/09/27 14:17:42;;;;;;;10.30;7.60;;;;;;;;;;5081879;28;20496;-74
2021/09/27 14:20:11;;;;;;;10.57;8.27;;;;;;;;;;5096672;28;20504;-73
2021/09/27 14:22:45;;;;;;;11.00;8.83;;;;;;;;;;5092458;28;21068;-74
2021/09/27 14:28:30;;;;;;;13.73;8.20;;;;;;;;;;5054325;28;20627;-72
2021/09/27 14:34:29;;;;;;;8.67;7.07;;;;;;;;;;5089639;28;20451;-74
2021/09/27 14:36:57;;;;;;;10.53;6.20;;;;;;;;;;5102913;28;20478;-74
2021/09/27 14:39:26;;;;;;;9.43;7.10;;;;;;;;;;5089425;28;20459;-74
2021/09/27 14:42:15;;;;;;;8.23;6.80;;;;;;;;;;5110207;27;20455;-74
2021/09/27 14:44:43;;;;;;;7.20;5.77;;;;;;;;;;5095487;28;20538;-72
2021/09/27 14:47:37;;;;;;;;;;;;;;;;;;;;;
2021/09/27 14:50:13;;;;;;;7.40;6.17;;;;;;;;;;5093849;28;20814;-76
2021/09/27 14:53:06;;;;;;;7.40;6.70;;;;;;;;;;5098615;28;20737;-74
2021/09/27 14:59:03;;;;;;;8.60;7.60;;;;;;;;;;5088517;28;20443;-74
2021/09/27 15:01:35;;;;;;;16.27;9.90;;;;;;;;;;5095267;28;20550;-73
2021/09/27 15:04:09;;;;;;;9.80;6.67;;;;;;;;;;5114925;28;20466;-75
2021/09/27 15:06:39;;;;;;;8.07;6.77;;;;;;;;;;5114177;28;20446;-72
2021/09/27 15:09:16;;;;;;;6.30;5.70;;;;;;;;;;5114623;27;20484;-73
2021/09/27 15:11:48;;;;;;;8.60;5.53;;;;;;;;;;5112703;28;20530;-74
2021/09/27 15:14:47;;;;;;;8.97;6.93;;;;;;;;;;5098217;28;20483;-74
2021/09/27 15:17:15;;;;;;;10.37;6.97;;;;;;;;;;5091294;28;20479;-74
2021/09/27 15:19:48;;;;;;;13.07;6.90;;;;;;;;;;5092720;28;20482;-74
2021/09/27 15:22:34;;;;;;;9.10;7.27;;;;;;;;;;5095632;28;20460;-74
2021/09/27 15:25:08;;;;;;;8.53;7.20;;;;;;;;;;5092560;28;20454;-72
2021/09/27 15:27:46;;;;;;;10.37;8.07;;;;;;;;;;5092903;28;20542;-73
2021/09/27 15:30:32;;;;;;;;;;;;;;;;;;;;;
2021/09/27 15:33:05;;;;;;;14.80;6.70;;;;;;;;;;5092680;28;20499;-72
2021/09/27 15:35:50;;;;;;;7.57;6.77;;;;;;;;;;5092919;28;20465;-72